createdAt,value
2022-07-31T00:00:00.277Z,50.865669
2022-07-31T00:01:00.276Z,50.866055
2022-07-31T00:02:00.265Z,50.866070
2022-07-31T00:03:00.317Z,50.866127
2022-07-31T00:04:00.247Z,50.866177
2022-07-31T00:05:00.237Z,50.866177
2022-07-31T00:06:00.247Z,50.866203
2022-07-31T00:07:00.526Z,50.866127
2022-07-31T00:08:00.751Z,50.866051
2022-07-31T00:09:00.213Z,50.866001
2022-07-31T00:10:00.223Z,50.865993
2022-07-31T00:11:00.195Z,50.865879
2022-07-31T00:12:00.189Z,50.865997
2022-07-31T00:13:00.212Z,50.866058
2022-07-31T00:14:00.171Z,50.866093
2022-07-31T00:15:00.170Z,50.866135
2022-07-31T00:16:01.157Z,50.866062
2022-07-31T00:17:00.513Z,50.866184
2022-07-31T00:18:00.141Z,50.866314
2022-07-31T00:19:00.137Z,50.866386
2022-07-31T00:20:00.175Z,50.866760
2022-07-31T00:21:00.117Z,50.866798
2022-07-31T00:22:00.118Z,50.866844
2022-07-31T00:23:00.098Z,50.866863
2022-07-31T00:24:00.093Z,50.866814
2022-07-31T00:25:00.092Z,50.866829
2022-07-31T00:26:00.081Z,50.866791
2022-07-31T00:27:00.306Z,50.866898
2022-07-31T00:28:00.062Z,50.866825
2022-07-31T00:29:00.074Z,50.866852
2022-07-31T00:30:00.072Z,50.866863
2022-07-31T00:31:00.067Z,50.866829
2022-07-31T00:38:24.891Z,50.866573
2022-07-31T00:39:03.540Z,50.866825
2022-07-31T00:40:01.540Z,50.866795
2022-07-31T00:41:01.536Z,50.866798
2022-07-31T00:42:01.515Z,50.866772
2022-07-31T00:43:01.499Z,50.866760
2022-07-31T00:44:01.492Z,50.866821
2022-07-31T00:45:01.486Z,50.866783
2022-07-31T00:46:01.481Z,50.866734
2022-07-31T00:47:01.800Z,50.866722
2022-07-31T00:48:01.462Z,50.866722
2022-07-31T00:49:01.478Z,50.866753
2022-07-31T00:50:01.461Z,50.866772
2022-07-31T00:51:02.359Z,50.866737
2022-07-31T00:52:01.435Z,50.866768
2022-07-31T00:53:01.423Z,50.866798
2022-07-31T00:54:01.600Z,50.866787
2022-07-31T00:55:01.421Z,50.866764
2022-07-31T00:56:01.399Z,50.866783
2022-07-31T00:57:01.708Z,50.866810
2022-07-31T00:58:01.418Z,50.866798
2022-07-31T00:59:01.378Z,50.866776
2022-07-31T01:00:01.375Z,50.866737
2022-07-31T01:01:01.415Z,50.866707
2022-07-31T01:02:01.359Z,50.866745
2022-07-31T01:03:01.341Z,50.866657
2022-07-31T01:04:01.337Z,50.866699
2022-07-31T01:05:01.332Z,50.866688
2022-07-31T01:06:01.326Z,50.866718
2022-07-31T01:07:01.771Z,50.866711
2022-07-31T01:08:01.305Z,50.866699
2022-07-31T01:09:01.305Z,50.866730
2022-07-31T01:10:01.299Z,50.866718
2022-07-31T01:11:01.292Z,50.866718
2022-07-31T01:12:01.292Z,50.866722
2022-07-31T01:13:01.280Z,50.866722
2022-07-31T01:14:01.273Z,50.866730
2022-07-31T01:15:02.950Z,50.866749
2022-07-31T01:16:01.251Z,50.866585
2022-07-31T01:17:01.797Z,50.866642
2022-07-31T01:18:01.233Z,50.866760
2022-07-31T01:19:01.220Z,50.866814
2022-07-31T01:20:01.215Z,50.866768
2022-07-31T01:21:01.210Z,50.866753
2022-07-31T01:22:03.938Z,50.866737
2022-07-31T01:23:01.197Z,50.866684
2022-07-31T01:24:01.182Z,50.866707
2022-07-31T01:25:01.173Z,50.866707
2022-07-31T01:26:01.171Z,50.866680
2022-07-31T01:27:01.536Z,50.866726
2022-07-31T01:28:01.158Z,50.866722
2022-07-31T01:29:01.154Z,50.866764
2022-07-31T01:30:01.136Z,50.866760
2022-07-31T01:31:24.230Z,50.866783
2022-07-31T01:32:03.123Z,50.866802
2022-07-31T01:33:01.112Z,50.866741
2022-07-31T01:34:01.111Z,50.866730
2022-07-31T01:35:01.102Z,50.866718
2022-07-31T01:36:01.122Z,50.866703
2022-07-31T01:37:01.600Z,50.866737
2022-07-31T01:38:01.079Z,50.866730
2022-07-31T01:39:01.070Z,50.866795
2022-07-31T01:40:01.073Z,50.866741
2022-07-31T01:41:01.053Z,50.866768
2022-07-31T01:42:01.467Z,50.866737
2022-07-31T01:43:01.052Z,50.866745
2022-07-31T01:44:01.032Z,50.866730
2022-07-31T01:45:01.028Z,50.866779
2022-07-31T01:46:01.017Z,50.866779
2022-07-31T01:47:01.464Z,50.866791
2022-07-31T01:48:00.994Z,50.866810
2022-07-31T01:49:01.000Z,50.866817
2022-07-31T01:50:00.999Z,50.866833
2022-07-31T01:51:00.973Z,50.866871
2022-07-31T01:52:04.370Z,50.866825
2022-07-31T01:53:01.008Z,50.866714
2022-07-31T01:54:00.962Z,50.866745
2022-07-31T01:55:00.939Z,50.866802
2022-07-31T01:56:03.601Z,50.866833
2022-07-31T01:57:00.940Z,50.866798
2022-07-31T01:58:00.911Z,50.866791
2022-07-31T01:59:01.909Z,50.866783
2022-07-31T02:00:00.907Z,50.866787
2022-07-31T02:01:00.950Z,50.866787
2022-07-31T02:02:01.354Z,50.866764
2022-07-31T02:03:07.697Z,50.866810
2022-07-31T02:04:01.867Z,50.866772
2022-07-31T02:05:00.854Z,50.866760
2022-07-31T02:06:00.841Z,50.866798
2022-07-31T02:07:00.840Z,50.866779
2022-07-31T02:08:00.837Z,50.866776
2022-07-31T02:09:00.823Z,50.866772
2022-07-31T02:10:00.815Z,50.866787
2022-07-31T02:11:00.804Z,50.866772
2022-07-31T02:12:00.797Z,50.866779
2022-07-31T02:13:00.803Z,50.866741
2022-07-31T02:14:00.782Z,50.866783
2022-07-31T02:15:00.789Z,50.866833
2022-07-31T02:16:00.762Z,50.867001
2022-07-31T02:17:00.761Z,50.867031
2022-07-31T02:18:00.759Z,50.867004
2022-07-31T02:19:01.144Z,50.866875
2022-07-31T02:20:00.867Z,50.866837
2022-07-31T02:21:00.731Z,50.866810
2022-07-31T02:22:00.946Z,50.866829
2022-07-31T02:23:00.711Z,50.866859
2022-07-31T02:24:00.707Z,50.866882
2022-07-31T02:25:00.694Z,50.866840
2022-07-31T02:26:00.681Z,50.866821
2022-07-31T02:27:00.677Z,50.866817
2022-07-31T02:28:00.667Z,50.866940
2022-07-31T02:29:00.668Z,50.866905
2022-07-31T02:30:00.651Z,50.866886
2022-07-31T02:31:00.645Z,50.866829
2022-07-31T02:32:11.618Z,50.866787
2022-07-31T02:33:01.623Z,50.866791
2022-07-31T02:34:00.615Z,50.866650
2022-07-31T02:35:00.603Z,50.866711
2022-07-31T02:36:00.600Z,50.866734
2022-07-31T02:37:00.603Z,50.866795
2022-07-31T02:38:00.590Z,50.866795
2022-07-31T02:39:00.572Z,50.866764
2022-07-31T02:40:00.565Z,50.866714
2022-07-31T02:41:00.560Z,50.866764
2022-07-31T02:42:00.705Z,50.866768
2022-07-31T02:43:00.545Z,50.866764
2022-07-31T02:44:00.535Z,50.866871
2022-07-31T02:45:00.541Z,50.866764
2022-07-31T02:46:00.548Z,50.866798
2022-07-31T02:47:00.516Z,50.866749
2022-07-31T02:48:00.499Z,50.866787
2022-07-31T02:49:00.544Z,50.866776
2022-07-31T02:50:00.486Z,50.866737
2022-07-31T02:51:00.492Z,50.866699
2022-07-31T02:52:00.571Z,50.866722
2022-07-31T02:53:00.459Z,50.866791
2022-07-31T02:54:00.456Z,50.866692
2022-07-31T02:55:00.447Z,50.866673
2022-07-31T02:56:00.443Z,50.866699
2022-07-31T02:57:00.438Z,50.866722
2022-07-31T02:58:00.420Z,50.866768
2022-07-31T02:59:00.426Z,50.866764
2022-07-31T03:00:00.413Z,50.866783
2022-07-31T03:01:00.516Z,50.866730
2022-07-31T03:02:00.638Z,50.866791
2022-07-31T03:03:00.395Z,50.866882
2022-07-31T03:04:00.380Z,50.866802
2022-07-31T03:05:00.371Z,50.866581
2022-07-31T03:06:00.370Z,50.866711
2022-07-31T03:07:00.371Z,50.866779
2022-07-31T03:08:00.343Z,50.866726
2022-07-31T03:09:00.352Z,50.866661
2022-07-31T03:10:00.331Z,50.866695
2022-07-31T03:11:00.321Z,50.866665
2022-07-31T03:12:05.028Z,50.866638
2022-07-31T03:13:00.305Z,50.866653
2022-07-31T03:14:00.311Z,50.866669
2022-07-31T03:15:00.290Z,50.866718
2022-07-31T03:16:00.282Z,50.866695
2022-07-31T03:17:00.272Z,50.866734
2022-07-31T03:18:00.263Z,50.866653
2022-07-31T03:19:00.270Z,50.866543
2022-07-31T03:20:00.244Z,50.866692
2022-07-31T03:21:00.238Z,50.866749
2022-07-31T03:22:00.680Z,50.866581
2022-07-31T03:23:00.220Z,50.866402
2022-07-31T03:24:00.230Z,50.866627
2022-07-31T03:25:00.208Z,50.866657
2022-07-31T03:26:00.196Z,50.866634
2022-07-31T03:27:00.189Z,50.866619
2022-07-31T03:28:00.188Z,50.866646
2022-07-31T03:29:00.186Z,50.866680
2022-07-31T03:30:00.190Z,50.866627
2022-07-31T03:31:00.173Z,50.866611
2022-07-31T03:32:00.545Z,50.866653
2022-07-31T03:33:00.148Z,50.866753
2022-07-31T03:34:00.150Z,50.866703
2022-07-31T03:35:01.134Z,50.866585
2022-07-31T03:36:00.123Z,50.866646
2022-07-31T03:37:00.119Z,50.866673
2022-07-31T03:38:00.109Z,50.866676
2022-07-31T03:39:00.102Z,50.866722
2022-07-31T03:40:00.124Z,50.866692
2022-07-31T03:41:00.108Z,50.866695
2022-07-31T03:42:00.250Z,50.866737
2022-07-31T03:43:00.076Z,50.866703
2022-07-31T03:44:00.072Z,50.866726
2022-07-31T03:45:00.067Z,50.866695
2022-07-31T03:46:00.040Z,50.866726
2022-07-31T03:47:00.032Z,50.866726
2022-07-31T03:48:00.029Z,50.866718
2022-07-31T03:49:01.056Z,50.866734
2022-07-31T03:50:00.011Z,50.866756
2022-07-31T03:51:00.018Z,50.866745
2022-07-31T03:52:00.162Z,50.866798
2022-07-31T03:52:59.987Z,50.866776
2022-07-31T03:53:59.976Z,50.866737
2022-07-31T03:54:59.970Z,50.866661
2022-07-31T03:55:59.967Z,50.866661
2022-07-31T03:56:59.957Z,50.866692
2022-07-31T03:57:59.947Z,50.866688
2022-07-31T03:58:59.934Z,50.866722
2022-07-31T04:00:00.017Z,50.866722
2022-07-31T04:00:59.946Z,50.866726
2022-07-31T04:01:59.908Z,50.866734
2022-07-31T04:02:59.903Z,50.866726
2022-07-31T04:03:59.896Z,50.866749
2022-07-31T04:04:59.958Z,50.866756
2022-07-31T04:05:59.896Z,50.866772
2022-07-31T04:06:59.882Z,50.866753
2022-07-31T04:07:59.880Z,50.866734
2022-07-31T04:08:59.857Z,50.866772
2022-07-31T04:09:59.857Z,50.866737
2022-07-31T04:10:59.850Z,50.866703
2022-07-31T04:11:59.836Z,50.866722
2022-07-31T04:12:59.835Z,50.866726
2022-07-31T04:13:59.821Z,50.866745
2022-07-31T04:14:59.832Z,50.866745
2022-07-31T04:15:59.821Z,50.866741
2022-07-31T04:16:59.796Z,50.866753
2022-07-31T04:17:59.800Z,50.866768
2022-07-31T04:18:59.909Z,50.866737
2022-07-31T04:19:59.768Z,50.866737
2022-07-31T04:20:59.771Z,50.866749
2022-07-31T04:21:59.755Z,50.866760
2022-07-31T04:22:59.745Z,50.866768
2022-07-31T04:23:59.743Z,50.866741
2022-07-31T04:24:59.730Z,50.866653
2022-07-31T04:26:00.484Z,50.866642
2022-07-31T04:26:59.713Z,50.866669
2022-07-31T04:28:00.513Z,50.866665
2022-07-31T04:28:59.700Z,50.866669
2022-07-31T04:29:59.701Z,50.866653
2022-07-31T04:30:59.698Z,50.866676
2022-07-31T04:31:59.679Z,50.866711
2022-07-31T04:32:59.679Z,50.866680
2022-07-31T04:33:59.661Z,50.866707
2022-07-31T04:34:59.655Z,50.866737
2022-07-31T04:35:59.701Z,50.866707
2022-07-31T04:36:59.638Z,50.866695
2022-07-31T04:37:59.628Z,50.866642
2022-07-31T04:38:59.620Z,50.866692
2022-07-31T04:39:59.617Z,50.866749
2022-07-31T04:40:59.611Z,50.866695
2022-07-31T04:42:00.911Z,50.866741
2022-07-31T04:42:59.587Z,50.866684
2022-07-31T04:43:59.597Z,50.866718
2022-07-31T04:44:59.577Z,50.866718
2022-07-31T04:45:59.605Z,50.866730
2022-07-31T04:46:59.580Z,50.866730
2022-07-31T04:47:59.555Z,50.866688
2022-07-31T04:48:59.626Z,50.866737
2022-07-31T04:49:59.553Z,50.866768
2022-07-31T04:50:59.528Z,50.866680
2022-07-31T04:51:59.529Z,50.866726
2022-07-31T04:52:59.513Z,50.866730
2022-07-31T04:53:59.511Z,50.866653
2022-07-31T04:54:59.494Z,50.866707
2022-07-31T04:55:59.488Z,50.866726
2022-07-31T04:56:59.478Z,50.866688
2022-07-31T04:57:59.475Z,50.866615
2022-07-31T04:58:59.467Z,50.866573
2022-07-31T05:00:01.372Z,50.866615
2022-07-31T05:00:59.444Z,50.866756
2022-07-31T05:01:59.521Z,50.866711
2022-07-31T05:02:59.438Z,50.866650
2022-07-31T05:03:59.425Z,50.866714
2022-07-31T05:04:59.415Z,50.866673
2022-07-31T05:05:59.401Z,50.866676
2022-07-31T05:06:59.402Z,50.866688
2022-07-31T05:07:59.396Z,50.866695
2022-07-31T05:08:59.379Z,50.866638
2022-07-31T05:09:59.362Z,50.866688
2022-07-31T05:11:00.371Z,50.866703
2022-07-31T05:11:59.362Z,50.866703
2022-07-31T05:12:59.356Z,50.866707
2022-07-31T05:13:59.348Z,50.866756
2022-07-31T05:14:59.338Z,50.866653
2022-07-31T05:15:59.326Z,50.866745
2022-07-31T05:16:59.314Z,50.866711
2022-07-31T05:17:59.317Z,50.866802
2022-07-31T05:18:59.307Z,50.866711
2022-07-31T05:19:59.304Z,50.866695
2022-07-31T05:20:59.304Z,50.866661
2022-07-31T05:22:03.934Z,50.866726
2022-07-31T05:23:00.265Z,50.866814
2022-07-31T05:23:59.263Z,50.866783
2022-07-31T05:24:59.259Z,50.866821
2022-07-31T05:25:59.245Z,50.866756
2022-07-31T05:26:59.244Z,50.866760
2022-07-31T05:27:59.274Z,50.866772
2022-07-31T05:28:59.228Z,50.866776
2022-07-31T05:29:59.218Z,50.866745
2022-07-31T05:30:59.216Z,50.866776
2022-07-31T05:32:10.125Z,50.866768
2022-07-31T05:33:00.225Z,50.866623
2022-07-31T05:33:59.201Z,50.866852
2022-07-31T05:34:59.173Z,50.866699
2022-07-31T05:35:59.187Z,50.866787
2022-07-31T05:36:59.166Z,50.866699
2022-07-31T05:37:59.160Z,50.866718
2022-07-31T05:38:59.144Z,50.866806
2022-07-31T05:39:59.959Z,50.866924
2022-07-31T05:40:59.132Z,50.866901
2022-07-31T05:41:59.119Z,50.866634
2022-07-31T05:42:59.118Z,50.866642
2022-07-31T05:43:59.098Z,50.866604
2022-07-31T05:44:59.111Z,50.866726
2022-07-31T05:45:59.094Z,50.866753
2022-07-31T05:52:44.887Z,50.866585
2022-07-31T05:53:45.783Z,50.866650
2022-07-31T05:54:45.867Z,50.866482
2022-07-31T05:55:44.864Z,50.866474
2022-07-31T05:56:44.868Z,50.866302
2022-07-31T05:57:44.842Z,50.866661
2022-07-31T05:58:48.307Z,50.866753
2022-07-31T05:59:44.827Z,50.866764
2022-07-31T06:00:44.848Z,50.866703
2022-07-31T06:01:44.879Z,50.866749
2022-07-31T06:02:44.799Z,50.866753
2022-07-31T06:03:51.623Z,50.866661
2022-07-31T06:04:45.783Z,50.866543
2022-07-31T06:05:44.778Z,50.866661
2022-07-31T06:06:44.773Z,50.866871
2022-07-31T06:07:51.257Z,50.866802
2022-07-31T06:08:45.762Z,50.866760
2022-07-31T06:09:44.746Z,50.866787
2022-07-31T06:10:44.753Z,50.866814
2022-07-31T06:11:44.732Z,50.866917
2022-07-31T06:12:44.725Z,50.866970
2022-07-31T06:13:44.718Z,50.866837
2022-07-31T06:14:44.701Z,50.866913
2022-07-31T06:15:49.216Z,50.866837
2022-07-31T06:16:44.686Z,50.866943
2022-07-31T06:17:45.068Z,50.867001
2022-07-31T06:18:44.667Z,50.867027
2022-07-31T06:19:44.664Z,50.866985
2022-07-31T06:20:44.658Z,50.867073
2022-07-31T06:21:44.646Z,50.867043
2022-07-31T06:22:44.638Z,50.867050
2022-07-31T06:23:44.662Z,50.867043
2022-07-31T06:24:44.627Z,50.866940
2022-07-31T06:25:44.610Z,50.866825
2022-07-31T06:26:44.601Z,50.866756
2022-07-31T06:27:45.002Z,50.866760
2022-07-31T06:28:48.599Z,50.866734
2022-07-31T06:29:44.586Z,50.866772
2022-07-31T06:30:44.569Z,50.866650
2022-07-31T06:31:44.579Z,50.866768
2022-07-31T06:32:44.553Z,50.866886
2022-07-31T06:33:48.103Z,50.866917
2022-07-31T06:34:44.538Z,50.866947
2022-07-31T06:35:44.531Z,50.866859
2022-07-31T06:36:44.520Z,50.866821
2022-07-31T06:37:44.519Z,50.866817
2022-07-31T06:38:44.530Z,50.866814
2022-07-31T06:39:56.065Z,50.866745
2022-07-31T06:40:45.483Z,50.866882
2022-07-31T06:41:44.476Z,50.866905
2022-07-31T06:42:44.467Z,50.866901
2022-07-31T06:43:44.466Z,50.866863
2022-07-31T06:44:46.422Z,50.866844
2022-07-31T06:45:52.004Z,50.866806
2022-07-31T06:46:49.042Z,50.866825
2022-07-31T06:47:44.441Z,50.866795
2022-07-31T06:48:44.424Z,50.866768
2022-07-31T06:49:44.447Z,50.866776
2022-07-31T06:50:44.516Z,50.866795
2022-07-31T06:51:44.399Z,50.866787
2022-07-31T06:52:44.391Z,50.866833
2022-07-31T06:53:44.388Z,50.866859
2022-07-31T06:54:44.372Z,50.866852
2022-07-31T06:55:44.808Z,50.866909
2022-07-31T06:56:44.404Z,50.866886
2022-07-31T06:57:44.346Z,50.866882
2022-07-31T06:58:44.366Z,50.866890
2022-07-31T06:59:44.333Z,50.866867
2022-07-31T07:00:44.337Z,50.866932
2022-07-31T07:01:44.399Z,50.866890
2022-07-31T07:02:44.308Z,50.866879
2022-07-31T07:03:44.307Z,50.866886
2022-07-31T07:05:05.401Z,50.866844
2022-07-31T07:05:45.591Z,50.866859
2022-07-31T07:06:45.277Z,50.866863
2022-07-31T07:07:44.273Z,50.866886
2022-07-31T07:08:44.269Z,50.866913
2022-07-31T07:09:44.254Z,50.866936
2022-07-31T07:10:44.246Z,50.866905
2022-07-31T07:11:44.244Z,50.866966
2022-07-31T07:12:44.232Z,50.866882
2022-07-31T07:13:45.900Z,50.866863
2022-07-31T07:14:44.218Z,50.866867
2022-07-31T07:15:44.211Z,50.866894
2022-07-31T07:16:44.196Z,50.866756
2022-07-31T07:17:44.188Z,50.866692
2022-07-31T07:18:44.187Z,50.866657
2022-07-31T07:19:44.175Z,50.866695
2022-07-31T07:20:44.173Z,50.866714
2022-07-31T07:21:44.163Z,50.866745
2022-07-31T07:22:44.149Z,50.866772
2022-07-31T07:23:44.141Z,50.867020
2022-07-31T07:24:44.138Z,50.867058
2022-07-31T07:25:44.141Z,50.867027
2022-07-31T07:26:44.122Z,50.866993
2022-07-31T07:27:44.112Z,50.866924
2022-07-31T07:28:44.106Z,50.866901
2022-07-31T07:29:44.095Z,50.866905
2022-07-31T07:30:44.091Z,50.866837
2022-07-31T07:31:44.084Z,50.866848
2022-07-31T07:32:44.070Z,50.866833
2022-07-31T07:33:44.061Z,50.866833
2022-07-31T07:34:44.071Z,50.866863
2022-07-31T07:35:44.049Z,50.866867
2022-07-31T07:36:44.040Z,50.866875
2022-07-31T07:37:44.036Z,50.866806
2022-07-31T07:38:44.022Z,50.866783
2022-07-31T07:39:44.019Z,50.866783
2022-07-31T07:40:44.007Z,50.866772
2022-07-31T07:41:44.004Z,50.866772
2022-07-31T07:42:43.992Z,50.866894
2022-07-31T07:43:44.024Z,50.866955
2022-07-31T07:44:43.976Z,50.866917
2022-07-31T07:45:43.966Z,50.866966
2022-07-31T07:46:43.966Z,50.866909
2022-07-31T07:48:02.808Z,50.866932
2022-07-31T07:48:44.967Z,50.866936
2022-07-31T07:49:43.941Z,50.866890
2022-07-31T07:50:43.932Z,50.866863
2022-07-31T07:51:58.851Z,50.866871
2022-07-31T07:52:44.904Z,50.866814
2022-07-31T07:53:44.906Z,50.866829
2022-07-31T07:54:43.898Z,50.866810
2022-07-31T07:55:43.898Z,50.866840
2022-07-31T07:56:43.921Z,50.866879
2022-07-31T07:57:43.871Z,50.866871
2022-07-31T07:58:43.862Z,50.866886
2022-07-31T07:59:43.858Z,50.866932
2022-07-31T08:00:43.913Z,50.866840
2022-07-31T08:01:43.848Z,50.866840
2022-07-31T08:02:43.838Z,50.866894
2022-07-31T08:03:48.786Z,50.866959
2022-07-31T08:04:47.620Z,50.866959
2022-07-31T08:05:44.822Z,50.866989
2022-07-31T08:06:43.801Z,50.866894
2022-07-31T08:07:43.791Z,50.866852
2022-07-31T08:08:43.791Z,50.866859
2022-07-31T08:09:44.745Z,50.866920
2022-07-31T08:10:44.767Z,50.866901
2022-07-31T08:11:43.757Z,50.866886
2022-07-31T08:12:43.753Z,50.866863
2022-07-31T08:13:49.268Z,50.866753
2022-07-31T08:14:45.732Z,50.866680
2022-07-31T08:15:43.723Z,50.866676
2022-07-31T08:16:43.721Z,50.866764
2022-07-31T08:17:43.712Z,50.866718
2022-07-31T08:18:43.702Z,50.866802
2022-07-31T08:19:46.167Z,50.866585
2022-07-31T08:20:44.685Z,50.866795
2022-07-31T08:21:43.677Z,50.866779
2022-07-31T08:22:43.674Z,50.866795
2022-07-31T08:23:43.669Z,50.866783
2022-07-31T08:24:43.656Z,50.866798
2022-07-31T08:25:43.644Z,50.866692
2022-07-31T08:26:43.637Z,50.866795
2022-07-31T08:27:43.635Z,50.866798
2022-07-31T08:28:50.832Z,50.866783
2022-07-31T08:29:44.619Z,50.866753
2022-07-31T08:30:43.615Z,50.866756
2022-07-31T08:31:49.315Z,50.866745
2022-07-31T08:32:44.583Z,50.866753
2022-07-31T08:33:43.583Z,50.866760
2022-07-31T08:34:43.574Z,50.866776
2022-07-31T08:35:44.829Z,50.866856
2022-07-31T08:36:45.258Z,50.866722
2022-07-31T08:37:50.826Z,50.866730
2022-07-31T08:38:44.541Z,50.866726
2022-07-31T08:39:43.535Z,50.866756
2022-07-31T08:40:43.796Z,50.866810
2022-07-31T08:41:43.523Z,50.866760
2022-07-31T08:42:43.520Z,50.866756
2022-07-31T08:43:59.896Z,50.866676
2022-07-31T08:44:45.335Z,50.866741
2022-07-31T08:45:43.491Z,50.866756
2022-07-31T08:46:43.483Z,50.866795
2022-07-31T08:47:43.486Z,50.866856
2022-07-31T08:48:43.488Z,50.866776
2022-07-31T08:49:43.457Z,50.866791
2022-07-31T08:50:43.451Z,50.866837
2022-07-31T08:51:51.449Z,50.866779
2022-07-31T08:52:44.437Z,50.866779
2022-07-31T08:53:43.429Z,50.866798
2022-07-31T08:54:43.420Z,50.866814
2022-07-31T08:55:56.795Z,50.866802
2022-07-31T08:56:44.404Z,50.866772
2022-07-31T08:57:43.386Z,50.866783
2022-07-31T08:58:44.384Z,50.866806
2022-07-31T08:59:43.378Z,50.866837
2022-07-31T09:00:43.427Z,50.866760
2022-07-31T09:01:43.465Z,50.866779
2022-07-31T09:02:43.346Z,50.866779
2022-07-31T09:03:44.351Z,50.866756
2022-07-31T09:04:43.843Z,50.866753
2022-07-31T09:05:43.340Z,50.866745
2022-07-31T09:06:43.348Z,50.866753
2022-07-31T09:07:43.335Z,50.866760
2022-07-31T09:08:43.315Z,50.866791
2022-07-31T09:09:52.155Z,50.866840
2022-07-31T09:10:49.663Z,50.866806
2022-07-31T09:11:46.270Z,50.866753
2022-07-31T09:12:43.277Z,50.866776
2022-07-31T09:13:43.272Z,50.866749
2022-07-31T09:14:44.261Z,50.866741
2022-07-31T09:15:43.265Z,50.866745
2022-07-31T09:16:43.246Z,50.866714
2022-07-31T09:17:53.816Z,50.866707
2022-07-31T09:18:44.227Z,50.866730
2022-07-31T09:19:52.865Z,50.866673
2022-07-31T09:20:44.220Z,50.866699
2022-07-31T09:21:43.206Z,50.866768
2022-07-31T09:22:43.200Z,50.866753
2022-07-31T09:23:43.189Z,50.866745
2022-07-31T09:24:43.184Z,50.866802
2022-07-31T09:25:43.199Z,50.866791
2022-07-31T09:26:43.169Z,50.866734
2022-07-31T09:27:43.167Z,50.866821
2022-07-31T09:28:43.155Z,50.866879
2022-07-31T09:29:43.780Z,50.866852
2022-07-31T09:30:55.616Z,50.866783
2022-07-31T09:31:44.126Z,50.866787
2022-07-31T09:32:43.124Z,50.866882
2022-07-31T09:33:45.811Z,50.866997
2022-07-31T09:34:44.101Z,50.867260
2022-07-31T09:35:43.094Z,50.867264
2022-07-31T09:36:43.098Z,50.867237
2022-07-31T09:37:43.081Z,50.867134
2022-07-31T09:38:43.072Z,50.867081
2022-07-31T09:39:52.125Z,50.867081
2022-07-31T09:40:55.497Z,50.867081
2022-07-31T09:42:01.141Z,50.867176
2022-07-31T09:42:45.795Z,50.867203
2022-07-31T09:43:51.673Z,50.867241
2022-07-31T09:44:44.027Z,50.867241
2022-07-31T09:45:48.481Z,50.867241
2022-07-31T09:46:44.016Z,50.867241
2022-07-31T09:47:43.002Z,50.866898
2022-07-31T09:48:44.133Z,50.866776
2022-07-31T09:49:42.988Z,50.866699
2022-07-31T09:50:42.977Z,50.866695
2022-07-31T09:51:42.989Z,50.866730
2022-07-31T09:52:42.954Z,50.866714
2022-07-31T09:53:43.975Z,50.866722
2022-07-31T09:54:42.935Z,50.866776
2022-07-31T09:55:42.982Z,50.866684
2022-07-31T09:56:42.938Z,50.866608
2022-07-31T09:57:42.924Z,50.866585
2022-07-31T09:58:43.928Z,50.866570
2022-07-31T09:59:42.905Z,50.866589
2022-07-31T10:00:43.002Z,50.866581
2022-07-31T10:01:42.889Z,50.866577
2022-07-31T10:02:42.896Z,50.866611
2022-07-31T10:03:42.877Z,50.866596
2022-07-31T10:04:43.376Z,50.866650
2022-07-31T10:05:42.863Z,50.866676
2022-07-31T10:06:42.850Z,50.866619
2022-07-31T10:07:42.837Z,50.866764
2022-07-31T10:08:42.833Z,50.866714
2022-07-31T10:09:42.870Z,50.866737
2022-07-31T10:10:42.824Z,50.866722
2022-07-31T10:11:42.809Z,50.866749
2022-07-31T10:12:42.813Z,50.866764
2022-07-31T10:13:42.792Z,50.866787
2022-07-31T10:14:42.784Z,50.866684
2022-07-31T10:15:42.798Z,50.866669
2022-07-31T10:16:42.771Z,50.866753
2022-07-31T10:17:42.763Z,50.866756
2022-07-31T10:18:44.620Z,50.866840
2022-07-31T10:19:43.746Z,50.866806
2022-07-31T10:20:42.749Z,50.866795
2022-07-31T10:21:42.729Z,50.866833
2022-07-31T10:22:42.753Z,50.866783
2022-07-31T10:23:42.718Z,50.866783
2022-07-31T10:24:42.708Z,50.866730
2022-07-31T10:25:42.705Z,50.866737
2022-07-31T10:27:00.179Z,50.866817
2022-07-31T10:27:44.725Z,50.866714
2022-07-31T10:28:42.685Z,50.866852
2022-07-31T10:29:42.665Z,50.866737
2022-07-31T10:30:42.656Z,50.866730
2022-07-31T10:31:42.660Z,50.866684
2022-07-31T10:32:42.737Z,50.866714
2022-07-31T10:33:44.428Z,50.866791
2022-07-31T10:34:43.636Z,50.866695
2022-07-31T10:35:42.619Z,50.866745
2022-07-31T10:36:42.639Z,50.866722
2022-07-31T10:37:42.609Z,50.866734
2022-07-31T10:38:42.596Z,50.866722
2022-07-31T10:39:42.595Z,50.866722
2022-07-31T10:40:43.040Z,50.866711
2022-07-31T10:41:42.587Z,50.866688
2022-07-31T10:42:42.596Z,50.866695
2022-07-31T10:43:42.558Z,50.866711
2022-07-31T10:44:42.547Z,50.866695
2022-07-31T10:45:42.557Z,50.866695
2022-07-31T10:46:42.534Z,50.866680
2022-07-31T10:47:48.912Z,50.866688
2022-07-31T10:48:43.517Z,50.866684
2022-07-31T10:49:42.561Z,50.866695
2022-07-31T10:50:42.507Z,50.866688
2022-07-31T10:51:42.504Z,50.866688
2022-07-31T10:52:42.510Z,50.866699
2022-07-31T10:53:51.640Z,50.866676
2022-07-31T10:54:43.461Z,50.866680
2022-07-31T10:55:43.475Z,50.866695
2022-07-31T10:56:42.465Z,50.866642
2022-07-31T10:57:55.319Z,50.866657
2022-07-31T10:58:43.450Z,50.866661
2022-07-31T10:59:44.783Z,50.866661
2022-07-31T11:00:43.445Z,50.866688
2022-07-31T11:01:42.434Z,50.866688
2022-07-31T11:02:46.324Z,50.866688
2022-07-31T11:03:42.418Z,50.866684
2022-07-31T11:04:42.398Z,50.866676
2022-07-31T11:06:02.163Z,50.866703
2022-07-31T11:06:43.426Z,50.866737
2022-07-31T11:07:42.383Z,50.866676
2022-07-31T11:08:42.386Z,50.866714
2022-07-31T11:09:50.698Z,50.866741
2022-07-31T11:10:43.370Z,50.866741
2022-07-31T11:11:42.357Z,50.866817
2022-07-31T11:12:42.349Z,50.866791
2022-07-31T11:13:42.340Z,50.866749
2022-07-31T11:14:42.327Z,50.866821
2022-07-31T11:15:42.320Z,50.866661
2022-07-31T11:16:42.309Z,50.866592
2022-07-31T11:18:22.600Z,50.866028
2022-07-31T11:18:43.297Z,50.865578
2022-07-31T11:19:42.288Z,50.865696
2022-07-31T11:20:42.277Z,50.866196
2022-07-31T11:21:42.283Z,50.866203
2022-07-31T11:22:42.268Z,50.866447
2022-07-31T11:24:02.236Z,50.866627
2022-07-31T11:24:43.266Z,50.866718
2022-07-31T11:25:42.246Z,50.866676
2022-07-31T11:26:42.372Z,50.866661
2022-07-31T11:27:43.225Z,50.866638
2022-07-31T11:28:42.221Z,50.866699
2022-07-31T11:29:59.964Z,50.866722
2022-07-31T11:30:43.201Z,50.866707
2022-07-31T11:31:42.198Z,50.866692
2022-07-31T11:32:42.183Z,50.866699
2022-07-31T11:33:42.777Z,50.866737
2022-07-31T11:34:42.836Z,50.866722
2022-07-31T11:35:42.157Z,50.866703